Time;durP1;ratioP1;P1;durP2;ratioP2;P2;SDS_P1;SDS_P2;PMS_P1;PMS_P2;Temp;Humidity;BMP_temperature;BMP_pressure;BME280_temperature;BME280_humidity;BME280_pressure;Samples;Min_cycle;Max_cycle;Signal;HPM_P1;HPM_P2
2023/06/12 00:00:53;;;;;;;5.83;4.53;;;12.50;99.90;;;;;;4337058;28;658242;-68
2023/06/12 00:03:42;;;;;;;7.00;4.60;;;12.50;99.90;;;;;;4370850;27;657452;-68
2023/06/12 00:06:30;;;;;;;6.10;4.50;;;12.40;99.90;;;;;;4369867;28;658877;-69
2023/06/12 00:09:19;;;;;;;8.80;4.60;;;12.40;99.90;;;;;;4390811;27;657748;-68
2023/06/12 00:12:07;;;;;;;7.43;4.67;;;12.40;99.90;;;;;;4359646;28;658293;-68
2023/06/12 00:14:54;;;;;;;11.95;4.55;;;12.40;99.90;;;;;;4373326;28;657161;-68
2023/06/12 00:17:42;;;;;;;9.70;4.63;;;12.30;99.90;;;;;;4347926;28;659948;-68
2023/06/12 00:20:29;;;;;;;7.60;4.47;;;12.30;99.90;;;;;;4371444;28;657936;-68
2023/06/12 00:23:17;;;;;;;9.67;4.57;;;12.30;99.90;;;;;;4355322;28;658229;-68
2023/06/12 00:26:06;;;;;;;7.67;4.10;;;12.30;99.90;;;;;;4375320;28;658309;-68
2023/06/12 00:28:53;;;;;;;6.00;4.13;;;12.30;99.90;;;;;;4358278;28;657831;-68
2023/06/12 00:31:41;;;;;;;9.40;4.37;;;12.20;99.90;;;;;;4377485;28;658807;-68
2023/06/12 00:34:28;;;;;;;7.80;4.47;;;12.20;99.90;;;;;;4380416;28;657876;-68
2023/06/12 00:37:17;;;;;;;10.00;4.70;;;12.20;99.90;;;;;;4366259;27;657512;-69
2023/06/12 00:40:06;;;;;;;5.47;3.90;;;12.10;99.90;;;;;;4370570;28;658527;-68
2023/06/12 00:42:54;;;;;;;11.83;4.53;;;12.00;99.90;;;;;;4354692;28;658360;-68
2023/06/12 00:45:45;;;;;;;10.60;4.60;;;12.00;99.90;;;;;;4357093;28;660305;-68
2023/06/12 00:48:32;;;;;;;10.03;4.47;;;12.00;99.90;;;;;;4356691;28;659491;-68
2023/06/12 00:51:20;;;;;;;10.30;4.90;;;11.90;99.90;;;;;;4378585;28;658776;-68
2023/06/12 00:54:07;;;;;;;7.97;4.90;;;11.90;99.90;;;;;;4390581;27;658972;-68
2023/06/12 00:56:55;;;;;;;6.93;4.67;;;11.80;99.90;;;;;;4400333;27;657562;-68
2023/06/12 00:59:43;;;;;;;8.17;4.80;;;11.80;99.90;;;;;;4354670;28;658110;-68
2023/06/12 01:02:30;;;;;;;7.37;4.47;;;11.70;99.90;;;;;;4365864;28;658482;-69
2023/06/12 01:05:20;;;;;;;13.03;4.63;;;11.70;99.90;;;;;;4381540;27;658414;-68
2023/06/12 01:08:16;;;;;;;8.33;4.70;;;11.70;99.90;;;;;;4368843;27;659991;-68
2023/06/12 01:11:05;;;;;;;12.20;4.77;;;11.60;99.90;;;;;;4355000;28;658527;-68
2023/06/12 01:13:52;;;;;;;9.80;4.37;;;11.60;99.90;;;;;;4365814;28;658908;-68
2023/06/12 01:16:41;;;;;;;9.03;4.43;;;11.60;99.90;;;;;;4382208;27;658954;-68
2023/06/12 01:19:29;;;;;;;6.63;4.50;;;11.50;99.90;;;;;;4367344;27;657885;-68
2023/06/12 01:22:16;;;;;;;7.43;4.77;;;11.50;99.90;;;;;;4359782;27;657735;-68
2023/06/12 01:25:24;;;;;;;8.60;5.10;;;11.50;99.90;;;;;;4393894;27;658694;-68
2023/06/12 01:28:22;;;;;;;6.03;4.27;;;11.40;99.90;;;;;;4358403;28;657922;-68
2023/06/12 01:31:14;;;;;;;8.23;4.90;;;11.40;99.90;;;;;;4377486;28;657662;-69
2023/06/12 01:34:09;;;;;;;8.33;4.73;;;11.40;99.90;;;;;;4359561;28;658553;-68
2023/06/12 01:37:05;;;;;;;10.00;4.53;;;11.30;99.90;;;;;;4358060;28;657417;-67
2023/06/12 01:39:56;;;;;;;9.70;5.10;;;11.30;99.90;;;;;;4333968;28;659252;-68
2023/06/12 01:42:43;;;;;;;7.10;4.87;;;11.30;99.90;;;;;;4353547;28;659096;-68
2023/06/12 01:45:32;;;;;;;10.33;4.77;;;11.20;99.90;;;;;;4362990;28;657942;-68
2023/06/12 01:48:19;;;;;;;13.27;4.33;;;11.20;99.90;;;;;;4370119;28;658557;-69
2023/06/12 01:51:07;;;;;;;9.20;4.90;;;11.20;99.90;;;;;;4363310;28;659192;-68
2023/06/12 01:53:55;;;;;;;10.27;4.77;;;11.10;99.90;;;;;;4398760;27;657786;-68
2023/06/12 01:56:42;;;;;;;8.20;5.13;;;11.10;99.90;;;;;;4380831;28;658990;-68
2023/06/12 01:59:32;;;;;;;8.43;4.87;;;11.00;99.90;;;;;;4375876;28;659587;-68
2023/06/12 02:02:19;;;;;;;9.40;5.30;;;11.00;99.90;;;;;;4411553;27;657361;-68
2023/06/12 02:05:07;;;;;;;15.27;5.00;;;11.00;99.90;;;;;;4363774;28;658819;-68
2023/06/12 02:07:55;;;;;;;10.03;4.80;;;10.90;99.90;;;;;;4406857;27;658966;-68
2023/06/12 02:10:43;;;;;;;9.17;4.97;;;10.90;99.90;;;;;;4349679;28;659339;-69
2023/06/12 02:13:30;;;;;;;8.40;4.80;;;10.90;99.90;;;;;;4192256;27;658083;-69
2023/06/12 02:16:20;;;;;;;7.53;4.90;;;10.90;99.90;;;;;;4209904;28;657272;-69
2023/06/12 02:19:07;;;;;;;10.53;5.33;;;10.80;99.90;;;;;;4330662;27;658506;-70
2023/06/12 02:21:55;;;;;;;8.10;5.73;;;10.80;99.90;;;;;;4379272;28;659042;-68
2023/06/12 02:24:44;;;;;;;12.13;5.80;;;10.70;99.90;;;;;;4389073;27;658139;-68
2023/06/12 02:27:31;;;;;;;9.50;5.97;;;10.70;99.90;;;;;;4389840;27;659326;-68
2023/06/12 02:30:18;;;;;;;13.93;6.80;;;10.60;99.90;;;;;;4380029;28;658159;-68
2023/06/12 02:33:09;;;;;;;11.20;6.57;;;10.60;99.90;;;;;;4362958;28;659018;-68
2023/06/12 02:35:56;;;;;;;10.50;6.30;;;10.50;99.90;;;;;;4358061;28;659684;-69
2023/06/12 02:38:43;;;;;;;14.03;6.30;;;10.50;99.90;;;;;;4379131;28;659176;-68
2023/06/12 02:41:32;;;;;;;15.03;6.20;;;10.40;99.90;;;;;;4378213;27;659831;-68
2023/06/12 02:44:19;;;;;;;10.40;6.30;;;10.40;99.90;;;;;;4375749;28;659056;-68
2023/06/12 02:47:07;;;;;;;7.93;5.60;;;10.40;99.90;;;;;;4357853;28;659040;-68
2023/06/12 02:49:54;;;;;;;9.83;5.70;;;10.40;99.90;;;;;;4386002;28;658555;-68
2023/06/12 02:52:42;;;;;;;10.13;6.00;;;10.40;99.90;;;;;;4370299;27;657559;-68
2023/06/12 02:55:29;;;;;;;12.60;5.70;;;10.40;99.90;;;;;;4375453;27;658707;-68
2023/06/12 02:58:18;;;;;;;9.47;5.63;;;10.40;99.90;;;;;;4372203;27;658848;-69
2023/06/12 03:01:05;;;;;;;9.17;5.77;;;10.40;99.90;;;;;;4360778;28;657807;-69
2023/06/12 03:03:53;;;;;;;18.40;5.47;;;10.40;99.90;;;;;;4380078;28;658990;-69
2023/06/12 03:06:40;;;;;;;10.23;5.30;;;10.40;99.90;;;;;;4414732;27;659365;-69
2023/06/12 03:09:28;;;;;;;10.53;5.60;;;10.40;99.90;;;;;;4391102;27;659061;-68
2023/06/12 03:12:15;;;;;;;10.83;5.27;;;10.50;99.90;;;;;;4364445;28;658421;-68
2023/06/12 03:15:05;;;;;;;12.63;5.40;;;10.50;99.90;;;;;;4374353;28;659702;-68
2023/06/12 03:17:52;;;;;;;9.23;5.30;;;10.60;99.90;;;;;;4356211;28;658961;-68
2023/06/12 03:20:39;;;;;;;7.73;5.13;;;10.60;99.90;;;;;;4391907;28;657004;-68
2023/06/12 03:23:26;;;;;;;11.57;5.20;;;10.60;99.90;;;;;;4402409;27;657601;-68
2023/06/12 03:26:14;;;;;;;8.33;4.90;;;10.70;99.90;;;;;;4390903;27;658838;-68
2023/06/12 03:29:01;;;;;;;10.67;5.33;;;10.70;99.90;;;;;;4377519;27;657434;-68
2023/06/12 03:31:50;;;;;;;8.20;5.23;;;10.80;99.90;;;;;;4392406;28;658622;-67
2023/06/12 03:34:38;;;;;;;9.50;4.93;;;10.80;99.90;;;;;;4361228;27;658516;-68
2023/06/12 03:37:28;;;;;;;8.47;4.73;;;10.90;99.90;;;;;;4371871;27;657790;-68
2023/06/12 03:40:15;;;;;;;7.07;5.03;;;10.90;99.90;;;;;;4429775;27;657842;-69
2023/06/12 03:43:02;;;;;;;8.60;4.53;;;11.00;99.90;;;;;;4386384;27;658767;-69
2023/06/12 03:45:50;;;;;;;7.37;4.70;;;11.00;99.90;;;;;;4387080;27;658160;-68
2023/06/12 03:48:39;;;;;;;9.17;5.20;;;11.10;99.90;;;;;;4386117;28;657967;-68
2023/06/12 03:51:27;;;;;;;8.83;4.67;;;11.20;99.90;;;;;;4395231;27;657724;-68
2023/06/12 03:54:14;;;;;;;9.53;5.37;;;11.20;99.90;;;;;;4393331;27;657210;-68
2023/06/12 03:57:01;;;;;;;6.00;4.90;;;11.30;99.90;;;;;;4365137;27;657570;-68
2023/06/12 03:59:48;;;;;;;8.80;5.10;;;11.40;99.90;;;;;;4370700;28;658155;-68
2023/06/12 04:02:36;;;;;;;8.13;5.03;;;11.50;99.90;;;;;;4367034;28;657768;-68
2023/06/12 04:05:26;;;;;;;8.37;4.97;;;11.60;99.90;;;;;;4382711;28;658465;-68
2023/06/12 04:08:13;;;;;;;6.83;4.70;;;11.60;99.90;;;;;;4380200;27;658394;-69
2023/06/12 04:11:02;;;;;;;10.53;5.00;;;11.80;99.90;;;;;;4388968;27;657439;-68
2023/06/12 04:13:49;;;;;;;7.23;4.80;;;11.80;99.90;;;;;;4389995;28;658611;-69
2023/06/12 04:16:37;;;;;;;8.60;4.50;;;11.90;99.90;;;;;;4378072;27;658243;-68
2023/06/12 04:19:24;;;;;;;8.03;4.27;;;12.00;99.90;;;;;;4384674;28;658469;-68
2023/06/12 04:22:12;;;;;;;7.97;5.00;;;12.10;99.90;;;;;;4364915;27;657727;-68
2023/06/12 04:25:04;;;;;;;8.80;4.80;;;12.20;99.90;;;;;;4422605;27;657269;-69
2023/06/12 04:27:52;;;;;;;7.03;4.63;;;12.40;99.90;;;;;;4391382;27;657888;-68
2023/06/12 04:30:39;;;;;;;8.97;4.67;;;12.40;99.90;;;;;;4387185;27;657653;-68
2023/06/12 04:33:30;;;;;;;5.78;4.22;;;12.60;99.90;;;;;;4363174;27;658231;-68
2023/06/12 04:36:17;;;;;;;10.47;4.53;;;12.60;99.90;;;;;;4357074;28;658734;-68
2023/06/12 04:39:10;;;;;;;13.00;4.30;;;12.70;99.90;;;;;;4378193;28;658541;-67
2023/06/12 04:41:58;;;;;;;5.17;4.10;;;12.80;99.90;;;;;;4352916;28;658925;-68
2023/06/12 04:44:46;;;;;;;5.67;3.73;;;12.90;99.90;;;;;;4402986;27;659164;-69
2023/06/12 04:47:36;;;;;;;4.70;3.73;;;13.00;99.90;;;;;;4407830;27;658050;-69
2023/06/12 04:50:23;;;;;;;4.63;3.60;;;13.00;99.90;;;;;;4353141;28;658229;-68
2023/06/12 04:53:12;;;;;;;10.93;3.70;;;13.10;99.90;;;;;;4353647;28;657603;-69
2023/06/12 04:56:04;;;;;;;5.07;3.27;;;13.20;99.90;;;;;;4376212;28;658254;-68
2023/06/12 04:58:52;;;;;;;8.33;3.23;;;13.20;99.90;;;;;;4361361;28;659099;-69
2023/06/12 05:01:39;;;;;;;7.07;2.80;;;13.30;99.90;;;;;;4391360;27;657111;-68
2023/06/12 05:04:26;;;;;;;3.77;2.93;;;13.30;99.90;;;;;;4359350;28;657620;-68
2023/06/12 05:07:18;;;;;;;4.50;2.78;;;13.40;99.90;;;;;;4391792;27;658746;-68
2023/06/12 05:10:06;;;;;;;3.80;2.87;;;13.40;99.90;;;;;;4342139;27;657682;-68
2023/06/12 05:12:55;;;;;;;6.00;3.10;;;13.50;99.90;;;;;;4386846;28;657700;-68
2023/06/12 05:15:42;;;;;;;5.80;2.67;;;13.50;99.90;;;;;;4368139;28;658414;-67
2023/06/12 05:18:29;;;;;;;4.00;2.70;;;13.70;99.90;;;;;;4385307;27;657564;-68
2023/06/12 05:21:18;;;;;;;3.87;2.67;;;13.70;99.90;;;;;;4407518;27;657493;-69
2023/06/12 05:24:06;;;;;;;4.00;2.80;;;13.80;99.90;;;;;;4358638;28;657664;-68
2023/06/12 05:26:54;;;;;;;3.70;2.70;;;13.90;99.90;;;;;;4380795;28;657564;-68
2023/06/12 05:29:42;;;;;;;6.37;2.90;;;14.00;99.90;;;;;;4360410;28;657765;-68
2023/06/12 05:32:29;;;;;;;3.70;2.13;;;14.20;99.90;;;;;;4387783;27;656891;-68
2023/06/12 05:35:17;;;;;;;9.67;3.00;;;14.20;99.90;;;;;;4396678;27;657475;-69
2023/06/12 05:38:04;;;;;;;3.97;2.50;;;14.30;99.90;;;;;;4383191;28;657229;-68
2023/06/12 05:40:52;;;;;;;8.67;2.40;;;14.30;99.90;;;;;;4364846;27;657808;-68
2023/06/12 05:43:40;;;;;;;7.90;2.70;;;14.10;99.90;;;;;;4379214;28;657334;-68
2023/06/12 05:46:28;;;;;;;6.30;2.60;;;14.40;99.90;;;;;;4365659;27;659160;-69
2023/06/12 05:49:15;;;;;;;10.00;2.67;;;14.60;99.90;;;;;;4364856;27;657861;-69
2023/06/12 05:52:03;;;;;;;5.93;2.60;;;14.80;99.90;;;;;;4377578;27;659303;-67
2023/06/12 05:54:50;;;;;;;4.77;2.40;;;14.80;99.90;;;;;;4393706;27;658532;-68
2023/06/12 05:57:38;;;;;;;7.33;2.63;;;14.60;99.90;;;;;;4389955;27;658135;-68
2023/06/12 06:00:25;;;;;;;4.60;2.50;;;14.60;99.90;;;;;;4377207;27;657896;-68
2023/06/12 06:03:15;;;;;;;6.50;2.57;;;14.90;99.90;;;;;;4405196;27;657364;-68
2023/06/12 06:06:02;;;;;;;6.00;2.53;;;15.20;99.90;;;;;;4396542;27;658511;-67
2023/06/12 06:08:50;;;;;;;3.90;2.43;;;15.20;99.90;;;;;;4375680;27;658494;-67
2023/06/12 06:11:37;;;;;;;4.50;2.43;;;15.30;99.90;;;;;;4391943;27;658959;-66
2023/06/12 06:14:25;;;;;;;4.63;2.60;;;15.30;99.90;;;;;;4395144;27;657728;-68
2023/06/12 06:17:13;;;;;;;4.00;2.10;;;15.30;99.90;;;;;;4385686;28;658614;-66
2023/06/12 06:20:02;;;;;;;4.30;2.37;;;15.40;99.90;;;;;;4365599;27;657958;-67
2023/06/12 06:22:50;;;;;;;4.70;2.33;;;15.40;99.90;;;;;;4379971;28;657581;-68
2023/06/12 06:25:38;;;;;;;6.90;2.70;;;15.40;99.90;;;;;;4362865;28;659030;-66
2023/06/12 06:28:25;;;;;;;4.80;2.27;;;15.60;99.90;;;;;;4337894;28;658333;-66
2023/06/12 06:31:12;;;;;;;5.47;2.50;;;15.70;99.90;;;;;;4357404;28;658994;-66
2023/06/12 06:34:00;;;;;;;4.50;2.30;;;15.90;99.90;;;;;;4352415;28;657920;-67
2023/06/12 06:36:49;;;;;;;3.87;1.93;;;16.10;99.90;;;;;;4363533;28;658659;-66
2023/06/12 06:39:37;;;;;;;5.70;2.30;;;16.00;99.90;;;;;;4339553;28;659100;-67
2023/06/12 06:42:24;;;;;;;6.30;2.40;;;16.20;99.90;;;;;;4376623;27;658281;-67
2023/06/12 06:45:12;;;;;;;4.03;1.77;;;16.20;99.90;;;;;;4338230;28;657975;-68
2023/06/12 06:47:59;;;;;;;3.60;1.80;;;16.30;99.90;;;;;;4374259;27;657860;-66
2023/06/12 06:50:46;;;;;;;2.87;1.80;;;16.30;99.20;;;;;;4335110;28;658139;-67
2023/06/12 06:53:35;;;;;;;5.90;2.00;;;16.30;99.20;;;;;;4356945;28;657492;-66
2023/06/12 06:56:22;;;;;;;4.43;2.17;;;16.40;99.90;;;;;;4341105;28;658474;-67
2023/06/12 06:59:09;;;;;;;4.57;1.87;;;16.70;99.90;;;;;;4359897;28;657593;-66
2023/06/12 07:01:57;;;;;;;6.00;2.30;;;16.80;99.70;;;;;;4337474;28;657640;-66
2023/06/12 07:04:45;;;;;;;5.83;2.30;;;17.00;99.90;;;;;;4363148;28;657864;-66
2023/06/12 07:07:32;;;;;;;3.13;2.03;;;17.10;99.90;;;;;;4332026;28;658821;-66
2023/06/12 07:10:20;;;;;;;5.07;2.40;;;17.20;99.90;;;;;;4367794;28;657613;-66
2023/06/12 07:13:08;;;;;;;6.50;2.27;;;17.20;99.20;;;;;;4335420;28;659208;-66
2023/06/12 07:15:55;;;;;;;13.93;4.30;;;17.50;99.90;;;;;;4348477;28;657684;-76
2023/06/12 07:18:42;;;;;;;7.27;2.40;;;17.70;99.20;;;;;;4392937;28;658574;-75
2023/06/12 07:21:30;;;;;;;11.93;3.30;;;17.90;98.40;;;;;;4364233;28;657340;-75
2023/06/12 07:24:17;;;;;;;9.47;2.30;;;18.10;97.00;;;;;;4344031;27;659974;-75
2023/06/12 07:27:06;;;;;;;5.67;1.87;;;18.20;93.60;;;;;;4367889;28;658023;-74
2023/06/12 07:29:55;;;;;;;3.27;1.90;;;18.30;93.00;;;;;;4359705;28;658841;-75
2023/06/12 07:32:42;;;;;;;5.40;1.90;;;18.40;92.50;;;;;;4362823;28;658827;-75
2023/06/12 07:35:29;;;;;;;6.20;1.93;;;18.20;91.30;;;;;;4382921;28;657285;-75
2023/06/12 07:38:16;;;;;;;9.67;2.27;;;18.30;92.60;;;;;;4390294;27;658024;-75
2023/06/12 07:41:04;;;;;;;4.20;1.80;;;18.20;90.50;;;;;;4399879;27;657743;-75
2023/06/12 07:43:52;;;;;;;6.67;1.93;;;18.10;90.50;;;;;;4375193;27;657278;-74
2023/06/12 07:46:41;;;;;;;4.37;1.80;;;18.50;92.10;;;;;;4396426;27;657430;-74
2023/06/12 07:49:28;;;;;;;5.03;2.30;;;18.50;86.40;;;;;;4378939;27;658186;-74
2023/06/12 07:52:15;;;;;;;5.30;1.90;;;18.40;85.80;;;;;;4371317;27;657890;-74
2023/06/12 07:55:05;;;;;;;11.47;2.10;;;18.40;86.00;;;;;;4390688;27;658356;-74
2023/06/12 07:57:52;;;;;;;6.97;2.30;;;18.40;86.30;;;;;;4360237;27;658701;-74
2023/06/12 08:00:42;;;;;;;6.30;2.07;;;18.70;86.90;;;;;;4384798;28;658025;-74
2023/06/12 08:03:29;;;;;;;6.63;2.30;;;18.70;83.70;;;;;;4351034;28;658215;-74
2023/06/12 08:06:17;;;;;;;8.77;2.17;;;19.10;85.00;;;;;;4404359;27;657965;-75
2023/06/12 08:09:05;;;;;;;7.47;2.20;;;19.10;83.80;;;;;;4230724;27;657277;-76
2023/06/12 08:11:52;;;;;;;3.83;2.17;;;19.00;80.80;;;;;;4194084;28;657539;-74
2023/06/12 08:14:39;;;;;;;7.13;1.93;;;19.10;79.20;;;;;;4309533;28;657635;-75
2023/06/12 08:17:28;;;;;;;3.87;2.10;;;19.40;79.90;;;;;;4351379;28;658677;-74
2023/06/12 08:20:17;;;;;;;2.03;1.83;;;19.80;80.30;;;;;;4355713;28;657622;-74
2023/06/12 08:23:04;;;;;;;11.00;1.97;;;19.40;75.50;;;;;;4377033;28;658145;-74
2023/06/12 08:25:52;;;;;;;8.50;2.67;;;19.10;75.50;;;;;;4357836;28;658412;-74
2023/06/12 08:28:39;;;;;;;5.10;2.30;;;19.40;75.60;;;;;;4376902;28;658048;-73
2023/06/12 08:31:26;;;;;;;3.43;2.00;;;19.80;79.00;;;;;;4356189;28;658200;-73
2023/06/12 08:34:15;;;;;;;5.33;1.90;;;20.20;78.80;;;;;;4374603;28;658317;-73
2023/06/12 08:37:03;;;;;;;3.73;1.70;;;20.40;70.60;;;;;;4364110;28;658008;-72
2023/06/12 08:39:50;;;;;;;3.90;2.00;;;20.40;66.40;;;;;;4362187;28;657981;-72
2023/06/12 08:42:38;;;;;;;3.57;1.67;;;20.70;67.00;;;;;;4378093;28;658978;-72
2023/06/12 08:45:27;;;;;;;3.37;1.80;;;20.10;63.70;;;;;;4371938;28;657813;-73
2023/06/12 08:48:14;;;;;;;7.17;2.00;;;19.90;67.60;;;;;;4375617;28;657683;-73
2023/06/12 08:51:03;;;;;;;7.07;2.00;;;20.30;69.60;;;;;;4379283;27;657723;-73
2023/06/12 08:53:50;;;;;;;4.33;2.30;;;20.50;66.00;;;;;;4370272;28;657627;-73
2023/06/12 08:56:38;;;;;;;5.50;2.30;;;20.70;62.30;;;;;;4397833;28;658394;-73
2023/06/12 08:59:25;;;;;;;11.87;1.83;;;20.90;62.90;;;;;;4379711;28;657982;-73
2023/06/12 09:02:13;;;;;;;4.00;2.00;;;21.20;62.10;;;;;;4385193;28;659705;-72
2023/06/12 09:05:02;;;;;;;8.03;2.60;;;20.90;58.80;;;;;;4378655;28;657700;-73
2023/06/12 09:07:51;;;;;;;6.80;2.27;;;20.20;58.90;;;;;;4385181;27;658762;-72
2023/06/12 09:10:39;;;;;;;2.10;1.67;;;20.10;60.80;;;;;;4354412;28;658585;-73
2023/06/12 09:13:26;;;;;;;4.93;1.73;;;20.00;57.70;;;;;;4379378;27;658140;-73
2023/06/12 09:16:14;;;;;;;8.17;2.30;;;20.10;62.00;;;;;;4389761;28;657489;-72
2023/06/12 09:19:01;;;;;;;4.53;2.00;;;20.40;60.40;;;;;;4372223;27;657423;-72
2023/06/12 09:21:49;;;;;;;3.53;1.77;;;20.90;58.40;;;;;;4401318;27;657982;-72
2023/06/12 09:24:37;;;;;;;5.00;2.03;;;20.90;56.80;;;;;;4360536;28;659412;-73
2023/06/12 09:27:25;;;;;;;4.43;2.03;;;21.00;56.30;;;;;;4395122;27;657714;-72
2023/06/12 09:30:13;;;;;;;5.93;1.80;;;20.90;58.60;;;;;;4383628;28;658041;-73
2023/06/12 09:33:00;;;;;;;5.87;1.80;;;20.20;56.30;;;;;;4368462;28;657638;-72
2023/06/12 09:35:51;;;;;;;3.03;1.80;;;20.10;57.50;;;;;;4395270;28;658571;-73
2023/06/12 09:38:38;;;;;;;2.33;1.77;;;20.20;57.30;;;;;;4358844;28;658070;-72
2023/06/12 09:41:29;;;;;;;5.93;1.80;;;20.70;56.70;;;;;;4358650;28;657882;-73
2023/06/12 09:44:20;;;;;;;6.73;1.87;;;21.00;55.60;;;;;;4362525;28;657437;-72
2023/06/12 09:47:09;;;;;;;7.28;1.90;;;20.60;56.00;;;;;;4354887;28;657307;-72
2023/06/12 09:49:57;;;;;;;3.87;2.07;;;20.50;56.40;;;;;;4366523;27;658672;-73
2023/06/12 09:52:45;;;;;;;4.57;2.03;;;20.90;58.70;;;;;;4405723;27;657911;-73
2023/06/12 09:55:32;;;;;;;5.93;1.70;;;21.10;56.30;;;;;;4382219;27;658436;-72
2023/06/12 09:58:21;;;;;;;6.50;1.93;;;20.70;55.40;;;;;;4396325;27;658711;-72
2023/06/12 10:01:08;;;;;;;8.30;2.13;;;21.10;56.00;;;;;;4399035;27;658028;-72
2023/06/12 10:03:56;;;;;;;2.77;1.90;;;21.80;54.70;;;;;;4376715;27;657653;-72
2023/06/12 10:06:43;;;;;;;4.53;2.10;;;21.50;54.60;;;;;;4385571;28;657792;-73
2023/06/12 10:09:30;;;;;;;6.47;2.07;;;21.80;53.70;;;;;;4378493;27;657990;-72
2023/06/12 10:12:18;;;;;;;3.73;2.33;;;22.10;54.00;;;;;;4396346;28;658049;-71
2023/06/12 10:15:08;;;;;;;4.40;2.20;;;22.70;53.00;;;;;;4368995;28;657716;-73
2023/06/12 10:17:55;;;;;;;6.70;1.93;;;23.30;52.90;;;;;;4354221;28;657952;-73
2023/06/12 10:20:42;;;;;;;13.07;2.37;;;22.80;49.30;;;;;;4386456;27;657954;-72
2023/06/12 10:23:29;;;;;;;5.30;2.03;;;21.80;50.00;;;;;;4376465;27;658518;-72
2023/06/12 10:26:17;;;;;;;3.53;1.80;;;21.80;51.20;;;;;;4360337;28;657877;-71
2023/06/12 10:29:25;;;;;;;3.00;1.80;;;22.40;51.20;;;;;;4382612;27;657036;-72
2023/06/12 10:32:15;;;;;;;3.67;1.70;;;23.30;50.80;;;;;;4335562;28;659036;-72
2023/06/12 10:35:03;;;;;;;6.27;1.90;;;23.80;48.20;;;;;;4357605;28;658418;-72
2023/06/12 10:37:51;;;;;;;6.33;1.90;;;23.40;46.80;;;;;;4377129;28;658210;-72
2023/06/12 10:40:39;;;;;;;5.20;2.03;;;22.50;46.70;;;;;;4383935;28;659148;-71
2023/06/12 10:43:27;;;;;;;4.50;1.90;;;22.40;49.20;;;;;;4378659;28;657777;-71
2023/06/12 10:46:14;;;;;;;4.63;1.67;;;22.40;47.60;;;;;;4382926;28;657567;-71
2023/06/12 10:49:07;;;;;;;5.63;1.93;;;22.70;47.30;;;;;;4360351;28;657258;-71
2023/06/12 10:51:54;;;;;;;2.37;1.80;;;23.20;46.60;;;;;;4355234;28;658704;-71
2023/06/12 10:54:41;;;;;;;6.00;2.00;;;23.20;46.20;;;;;;4357674;27;657525;-72
2023/06/12 10:57:28;;;;;;;5.20;1.93;;;23.50;46.80;;;;;;4388732;28;658697;-71
2023/06/12 11:00:17;;;;;;;9.80;2.00;;;23.60;47.60;;;;;;4375410;27;658527;-72
2023/06/12 11:03:06;;;;;;;4.40;1.83;;;23.10;45.80;;;;;;4397684;27;657934;-71
2023/06/12 11:05:55;;;;;;;4.57;1.60;;;22.90;47.40;;;;;;4381968;28;657897;-71
2023/06/12 11:08:42;;;;;;;8.30;1.90;;;23.50;46.30;;;;;;4361705;27;659415;-72
2023/06/12 11:11:30;;;;;;;2.80;1.60;;;23.60;45.00;;;;;;4376011;28;658605;-71
2023/06/12 11:14:17;;;;;;;3.13;1.53;;;23.80;45.20;;;;;;4391077;27;658554;-72
2023/06/12 11:17:05;;;;;;;4.75;1.70;;;23.80;44.20;;;;;;4391283;27;657601;-72
2023/06/12 11:19:59;;;;;;;3.93;1.87;;;24.00;43.60;;;;;;4396350;27;658522;-71
2023/06/12 11:22:48;;;;;;;6.30;2.00;;;23.90;42.30;;;;;;4364754;28;658054;-72
2023/06/12 11:25:36;;;;;;;3.03;1.60;;;23.70;43.30;;;;;;4361239;27;658440;-72
2023/06/12 11:28:24;;;;;;;2.28;1.60;;;24.00;44.00;;;;;;4397726;27;658270;-71
2023/06/12 11:31:11;;;;;;;5.13;1.83;;;24.10;43.20;;;;;;4364230;28;657327;-71
2023/06/12 11:33:59;;;;;;;3.45;2.08;;;24.30;41.40;;;;;;4411540;27;659088;-72
2023/06/12 11:36:46;;;;;;;3.42;1.70;;;24.50;41.10;;;;;;4366249;28;658172;-71
2023/06/12 11:39:35;;;;;;;11.88;2.10;;;24.60;40.70;;;;;;4384336;28;657839;-71
2023/06/12 11:42:22;;;;;;;2.85;1.65;;;24.90;42.30;;;;;;4367878;28;658967;-72
2023/06/12 11:45:10;;;;;;;3.47;1.70;;;25.00;40.60;;;;;;4402907;27;657685;-71
2023/06/12 11:47:57;;;;;;;5.20;1.70;;;25.00;39.10;;;;;;4376771;27;658588;-71
2023/06/12 11:50:45;;;;;;;6.07;1.75;;;24.60;38.00;;;;;;4378331;28;657489;-71
2023/06/12 11:53:33;;;;;;;5.57;1.42;;;24.70;39.70;;;;;;4361085;28;658078;-71
2023/06/12 11:56:22;;;;;;;3.85;1.58;;;24.70;38.40;;;;;;4392928;27;658758;-72
2023/06/12 11:59:09;;;;;;;3.22;1.40;;;24.70;39.20;;;;;;4404629;27;658015;-72
2023/06/12 12:01:59;;;;;;;2.63;1.80;;;24.30;38.80;;;;;;4351882;28;657647;-71
2023/06/12 12:04:47;;;;;;;4.15;1.65;;;24.10;41.10;;;;;;4388858;27;657740;-71
2023/06/12 12:07:38;;;;;;;3.22;1.65;;;24.20;41.40;;;;;;4395952;27;657357;-72
2023/06/12 12:10:26;;;;;;;4.57;1.63;;;23.70;41.60;;;;;;4347667;28;657838;-71
2023/06/12 12:13:14;;;;;;;4.83;1.90;;;23.60;39.90;;;;;;4388735;28;658389;-72
2023/06/12 12:16:02;;;;;;;4.97;1.80;;;22.70;42.20;;;;;;4357244;28;657467;-72
2023/06/12 12:18:50;;;;;;;6.63;2.13;;;22.00;43.70;;;;;;4411343;27;657618;-72
2023/06/12 12:21:37;;;;;;;8.50;2.20;;;22.30;45.10;;;;;;4380144;28;658842;-71
2023/06/12 12:24:24;;;;;;;8.07;2.00;;;22.70;44.40;;;;;;4377960;28;657704;-72
2023/06/12 12:27:13;;;;;;;6.53;1.87;;;23.30;43.80;;;;;;4359146;28;657722;-72
2023/06/12 12:30:03;;;;;;;2.35;1.80;;;24.00;42.00;;;;;;4371022;28;657770;-72
2023/06/12 12:32:52;;;;;;;6.00;1.67;;;24.10;39.80;;;;;;4379984;27;657187;-72
2023/06/12 12:35:39;;;;;;;4.95;1.83;;;23.80;40.10;;;;;;4381919;28;657604;-71
2023/06/12 12:38:27;;;;;;;6.10;1.67;;;23.50;41.00;;;;;;4379761;27;658562;-72
2023/06/12 12:41:14;;;;;;;7.47;1.67;;;23.70;42.00;;;;;;4392714;28;657451;-72
2023/06/12 12:44:01;;;;;;;5.43;1.50;;;23.80;42.20;;;;;;4364377;28;657464;-72
2023/06/12 12:46:50;;;;;;;4.93;1.70;;;24.50;38.40;;;;;;4379454;28;658237;-71
2023/06/12 12:49:37;;;;;;;2.28;1.60;;;24.60;37.70;;;;;;4372918;27;658494;-72
2023/06/12 12:52:24;;;;;;;5.63;1.75;;;24.50;38.30;;;;;;4380993;28;657840;-72
2023/06/12 12:55:12;;;;;;;3.67;1.50;;;24.60;39.40;;;;;;4366059;27;658284;-71
2023/06/12 12:57:59;;;;;;;3.22;1.58;;;24.10;38.50;;;;;;4383148;28;657617;-71
2023/06/12 13:00:46;;;;;;;14.50;2.45;;;23.60;39.30;;;;;;4365708;28;658545;-72
2023/06/12 13:03:37;;;;;;;9.20;1.73;;;23.20;40.60;;;;;;4386920;28;658542;-72
2023/06/12 13:06:25;;;;;;;3.50;1.60;;;23.10;42.00;;;;;;4353745;28;658171;-71
2023/06/12 13:09:12;;;;;;;4.03;1.80;;;22.30;40.90;;;;;;4362529;28;657983;-71
2023/06/12 13:12:00;;;;;;;6.13;1.80;;;22.20;41.70;;;;;;4391610;27;658154;-72
2023/06/12 13:14:47;;;;;;;3.57;1.60;;;22.70;40.60;;;;;;4357711;28;658697;-72
2023/06/12 13:17:34;;;;;;;4.53;1.80;;;22.90;39.70;;;;;;4385318;28;658455;-72
2023/06/12 13:20:23;;;;;;;5.63;2.00;;;22.50;41.40;;;;;;4357587;28;657976;-72
2023/06/12 13:23:10;;;;;;;5.93;1.77;;;22.10;41.10;;;;;;4361516;28;657923;-72
2023/06/12 13:25:58;;;;;;;1.80;1.60;;;22.70;42.00;;;;;;4380791;28;658229;-71
2023/06/12 13:28:45;;;;;;;5.17;1.50;;;23.20;41.50;;;;;;4382381;28;658332;-72
2023/06/12 13:31:32;;;;;;;4.70;1.90;;;23.90;40.80;;;;;;4386317;28;657887;-72
2023/06/12 13:34:20;;;;;;;3.47;1.70;;;24.10;39.40;;;;;;4387356;28;657235;-72
2023/06/12 13:37:09;;;;;;;2.80;1.73;;;23.70;38.50;;;;;;4388879;28;658370;-72
2023/06/12 13:39:56;;;;;;;3.97;1.90;;;23.20;38.30;;;;;;4363863;28;657841;-72
2023/06/12 13:42:44;;;;;;;6.17;1.80;;;22.80;39.10;;;;;;4381753;28;658749;-72
2023/06/12 13:45:32;;;;;;;3.00;1.70;;;23.00;41.20;;;;;;4361181;28;658332;-72
2023/06/12 13:48:20;;;;;;;4.93;1.47;;;23.50;41.10;;;;;;4396545;28;657981;-72
2023/06/12 13:51:07;;;;;;;5.20;1.73;;;24.00;40.60;;;;;;4364664;28;658746;-72
2023/06/12 13:53:56;;;;;;;3.07;1.60;;;24.30;38.70;;;;;;4373235;28;657182;-72
2023/06/12 13:56:44;;;;;;;5.87;1.70;;;24.10;36.70;;;;;;4359701;28;658834;-72
2023/06/12 13:59:32;;;;;;;2.97;1.93;;;23.40;38.60;;;;;;4357400;28;657752;-72
2023/06/12 14:02:19;;;;;;;5.37;1.57;;;23.40;41.20;;;;;;4376941;28;658130;-71
2023/06/12 14:05:07;;;;;;;2.30;1.80;;;23.80;38.30;;;;;;4357189;28;657631;-71
2023/06/12 14:07:54;;;;;;;2.53;1.63;;;23.40;39.30;;;;;;4385864;28;657924;-72
2023/06/12 14:10:43;;;;;;;7.90;1.90;;;23.80;38.30;;;;;;4359545;28;657795;-71
2023/06/12 14:13:30;;;;;;;4.60;1.93;;;24.00;38.50;;;;;;4249805;28;657969;-72
2023/06/12 14:16:20;;;;;;;3.75;1.80;;;24.60;38.00;;;;;;4250507;28;657633;-72
2023/06/12 14:19:08;;;;;;;5.03;1.40;;;24.60;37.60;;;;;;4249324;28;657226;-72
2023/06/12 14:21:55;;;;;;;2.50;1.90;;;24.40;38.10;;;;;;4337564;27;657992;-71